LOWW/VIE METAR and TAF weather

Enter ICAO airport designator
Station Type Date Time Source
LOWW METAR 2020/11/27 02:50 UTC NOAA

LOWW 270250Z 16004KT 9000 FEW008 BKN010 00/M02 Q1024 NOSIG


Station Type Date Time Source
LOWW Decoded METAR 2020/11/27 02:50 UTC NOAA

Wien / Schwechat-Flughafen, Austria (LOWW) 48-07N 016-34E 190M
Nov 26, 2020 - 09:50 PM EST / 2020.11.27 0250 UTC
Wind: from the SSE (160 degrees) at 5 MPH (4 KT):0
Visibility: 5 mile(s):0
Sky conditions: mostly cloudy
Temperature: 32 F (0 C)
Windchill: 26 F (-3 C):1
Dew Point: 28 F (-2 C)
Relative Humidity: 86%
Pressure (altimeter): 30.24 in. Hg (1024 hPa)
ob: LOWW 270250Z 16004KT 9000 FEW008 BKN010 00/M02 Q1024 NOSIG
cycle: 3

Station Type Date Time Source
LOWW TAF 2020/11/27 03:20 UTC NOAA

TAF LOWW 270215Z 2703/2809 VRB02KT 7000 OVC010 TX01/2713Z TNM00/2706Z
TEMPO 2703/2809 OVC007

Example: see airport list